Time;durP1;ratioP1;P1;durP2;ratioP2;P2;SDS_P1;SDS_P2;PMS_P1;PMS_P2;Temp;Humidity;BMP_temperature;BMP_pressure;BME280_temperature;BME280_humidity;BME280_pressure;Samples;Min_cycle;Max_cycle;Signal;HPM_P1;HPM_P2
2022/04/16 00:01:44;;;;;;;0.30;0.30;;;;;;;;;;1824269;78;26986;-47
2022/04/16 00:04:11;;;;;;;0.40;0.40;;;;;;;;;;1824484;76;26300;-48
2022/04/16 00:06:39;;;;;;;0.30;0.30;;;;;;;;;;1818039;78;26301;-48
2022/04/16 00:09:06;;;;;;;0.45;0.45;;;;;;;;;;1823932;76;26252;-46
2022/04/16 00:11:34;;;;;;;0.47;0.47;;;;;;;;;;1828366;78;26653;-49
2022/04/16 00:14:03;;;;;;;0.30;0.30;;;;;;;;;;1834883;78;26323;-49
2022/04/16 00:16:31;;;;;;;0.75;0.33;;;;;;;;;;1827368;78;26755;-46
2022/04/16 00:18:58;;;;;;;0.40;0.40;;;;;;;;;;1823668;78;26260;-45
2022/04/16 00:21:26;;;;;;;0.30;0.30;;;;;;;;;;1830494;78;26343;-46
2022/04/16 00:23:53;;;;;;;0.30;0.30;;;;;;;;;;1825236;78;26752;-45
2022/04/16 00:26:21;;;;;;;0.40;0.40;;;;;;;;;;1824498;78;26315;-46
2022/04/16 00:28:52;;;;;;;0.30;0.30;;;;;;;;;;1825744;78;26201;-51
2022/04/16 00:31:21;;;;;;;0.30;0.30;;;;;;;;;;1835081;78;26205;-47
2022/04/16 00:33:48;;;;;;;0.30;0.30;;;;;;;;;;1824976;78;26287;-48
2022/04/16 00:36:16;;;;;;;0.33;0.33;;;;;;;;;;1828445;78;26279;-46
2022/04/16 00:38:43;;;;;;;0.30;0.30;;;;;;;;;;1829722;78;26342;-49
2022/04/16 00:41:13;;;;;;;0.30;0.30;;;;;;;;;;1828693;78;26269;-48
2022/04/16 00:43:40;;;;;;;0.62;0.30;;;;;;;;;;1824166;78;26273;-48
2022/04/16 00:46:08;;;;;;;0.30;0.30;;;;;;;;;;1830409;78;26861;-48
2022/04/16 00:48:35;;;;;;;0.50;0.50;;;;;;;;;;1832908;78;26697;-49
2022/04/16 00:51:04;;;;;;;0.33;0.33;;;;;;;;;;1826570;78;26255;-47
2022/04/16 00:53:31;;;;;;;0.40;0.40;;;;;;;;;;1843896;78;26331;-49
2022/04/16 00:56:00;;;;;;;0.30;0.30;;;;;;;;;;1839780;77;26366;-47
2022/04/16 00:58:28;;;;;;;0.30;0.30;;;;;;;;;;1833236;77;26280;-46
2022/04/16 01:00:55;;;;;;;0.30;0.30;;;;;;;;;;1848201;77;26264;-45
2022/04/16 01:03:22;;;;;;;0.30;0.30;;;;;;;;;;1843905;77;26350;-47
2022/04/16 01:05:51;;;;;;;0.30;0.30;;;;;;;;;;1843999;76;26335;-47
2022/04/16 01:08:22;;;;;;;0.30;0.30;;;;;;;;;;1840793;77;26292;-48
2022/04/16 01:10:50;;;;;;;0.30;0.30;;;;;;;;;;1825576;77;26259;-48
2022/04/16 01:13:18;;;;;;;0.30;0.30;;;;;;;;;;1844376;76;26823;-46
2022/04/16 01:15:46;;;;;;;0.25;0.25;;;;;;;;;;1841751;76;26291;-48
2022/04/16 01:18:13;;;;;;;0.30;0.30;;;;;;;;;;1843247;76;26266;-49
2022/04/16 01:20:41;;;;;;;0.37;0.20;;;;;;;;;;1838383;77;26252;-47
2022/04/16 01:23:09;;;;;;;0.53;0.37;;;;;;;;;;1837553;77;26273;-45
2022/04/16 01:25:36;;;;;;;0.30;0.30;;;;;;;;;;1842776;77;26761;-47
2022/04/16 01:28:04;;;;;;;0.28;0.28;;;;;;;;;;1848897;77;26272;-47
2022/04/16 01:30:31;;;;;;;0.20;0.20;;;;;;;;;;1837961;77;26353;-45
2022/04/16 01:32:59;;;;;;;0.30;0.30;;;;;;;;;;1839690;77;26728;-49
2022/04/16 01:35:26;;;;;;;0.23;0.23;;;;;;;;;;1823589;76;26647;-48
2022/04/16 01:37:53;;;;;;;0.30;0.30;;;;;;;;;;1838252;77;26675;-47
2022/04/16 01:40:25;;;;;;;0.40;0.40;;;;;;;;;;1832787;77;26275;-47
2022/04/16 01:42:50;;;;;;;0.65;0.37;;;;;;;;;;1831620;77;26319;-46
2022/04/16 01:45:18;;;;;;;0.20;0.20;;;;;;;;;;1825998;77;26354;-49
2022/04/16 01:47:45;;;;;;;0.20;0.20;;;;;;;;;;1822957;77;25309;-45
2022/04/16 01:50:12;;;;;;;0.23;0.23;;;;;;;;;;1837134;77;26325;-47
2022/04/16 01:52:41;;;;;;;0.30;0.30;;;;;;;;;;1825698;77;26284;-49
2022/04/16 01:55:09;;;;;;;0.10;0.10;;;;;;;;;;1836122;77;26334;-48
2022/04/16 01:57:37;;;;;;;0.60;0.60;;;;;;;;;;1842745;76;26409;-46
2022/04/16 02:00:07;;;;;;;0.15;0.15;;;;;;;;;;1838277;77;26256;-45
2022/04/16 02:02:36;;;;;;;0.20;0.20;;;;;;;;;;1819599;76;26270;-45
2022/04/16 02:05:05;;;;;;;0.17;0.17;;;;;;;;;;1836700;77;26290;-50
2022/04/16 02:07:32;;;;;;;0.23;0.10;;;;;;;;;;1839951;77;26292;-52
2022/04/16 02:10:00;;;;;;;0.20;0.20;;;;;;;;;;1834727;76;26292;-50
2022/04/16 02:12:28;;;;;;;0.25;0.25;;;;;;;;;;1830490;77;26294;-50
2022/04/16 02:14:55;;;;;;;0.17;0.17;;;;;;;;;;1840501;77;26264;-48
2022/04/16 02:17:23;;;;;;;1.45;0.20;;;;;;;;;;1836306;77;26268;-48
2022/04/16 02:19:50;;;;;;;0.53;0.20;;;;;;;;;;1840416;77;26362;-49
2022/04/16 02:22:18;;;;;;;1.47;0.30;;;;;;;;;;1836215;77;26249;-48
2022/04/16 02:24:46;;;;;;;0.30;0.30;;;;;;;;;;1831579;77;26771;-45
2022/04/16 02:27:13;;;;;;;0.20;0.20;;;;;;;;;;1835941;77;26370;-47
2022/04/16 02:29:41;;;;;;;0.60;0.30;;;;;;;;;;1824579;77;26881;-50
2022/04/16 02:32:08;;;;;;;1.98;0.40;;;;;;;;;;1831143;77;26267;-45
2022/04/16 02:34:36;;;;;;;0.30;0.30;;;;;;;;;;1842153;76;26319;-46
2022/04/16 02:37:03;;;;;;;0.62;0.28;;;;;;;;;;1831404;77;26240;-50
2022/04/16 02:39:30;;;;;;;0.53;0.28;;;;;;;;;;1839396;77;26569;-46
2022/04/16 02:41:58;;;;;;;1.47;0.30;;;;;;;;;;1843157;76;26322;-50
2022/04/16 02:47:13;;;;;;;1.05;0.30;;;;;;;;;;1826606;77;26382;-48
2022/04/16 02:49:40;;;;;;;0.15;0.10;;;;;;;;;;1829783;77;26697;-46
2022/04/16 02:52:08;;;;;;;0.20;0.20;;;;;;;;;;1825274;77;26373;-48
2022/04/16 02:54:37;;;;;;;1.07;0.30;;;;;;;;;;1834382;77;26270;-47
2022/04/16 02:57:05;;;;;;;0.20;0.20;;;;;;;;;;1832064;77;26348;-48
2022/04/16 02:59:33;;;;;;;0.33;0.20;;;;;;;;;;1822841;78;26405;-46
2022/04/16 03:02:01;;;;;;;0.57;0.23;;;;;;;;;;1834789;78;26598;-47
2022/04/16 03:04:28;;;;;;;0.25;0.25;;;;;;;;;;1821398;78;26358;-48
2022/04/16 03:06:55;;;;;;;2.77;0.35;;;;;;;;;;1824927;78;26402;-48
2022/04/16 03:09:22;;;;;;;1.07;0.28;;;;;;;;;;1833247;78;26320;-45
2022/04/16 03:11:50;;;;;;;1.35;0.30;;;;;;;;;;1833805;78;26312;-47
2022/04/16 03:19:48;;;;;;;0.17;0.17;;;;;;;;;;1825664;77;26353;-48
2022/04/16 03:22:15;;;;;;;0.25;0.25;;;;;;;;;;1828705;77;26326;-47
2022/04/16 03:24:43;;;;;;;0.37;0.20;;;;;;;;;;1843915;77;26284;-46
2022/04/16 03:27:10;;;;;;;0.20;0.20;;;;;;;;;;1831973;77;26283;-48
2022/04/16 03:29:37;;;;;;;0.72;0.53;;;;;;;;;;1818973;78;26290;-45
2022/04/16 03:32:05;;;;;;;0.68;0.20;;;;;;;;;;1822748;78;26249;-45
2022/04/16 03:34:32;;;;;;;2.75;0.30;;;;;;;;;;1828628;78;26684;-46
2022/04/16 03:37:00;;;;;;;0.42;0.35;;;;;;;;;;1844047;78;26260;-45
2022/04/16 03:39:28;;;;;;;0.85;0.20;;;;;;;;;;1827030;78;26361;-45
2022/04/16 03:41:55;;;;;;;0.57;0.30;;;;;;;;;;1819913;78;26252;-46
2022/04/16 03:44:23;;;;;;;0.47;0.35;;;;;;;;;;1835500;77;26322;-50
2022/04/16 03:46:50;;;;;;;0.28;0.20;;;;;;;;;;1828201;78;26728;-47
2022/04/16 03:49:18;;;;;;;1.55;0.30;;;;;;;;;;1815291;78;26260;-48
2022/04/16 03:51:45;;;;;;;0.80;0.30;;;;;;;;;;1829562;78;26208;-51
2022/04/16 04:00:01;;;;;;;2.05;0.30;;;;;;;;;;1830896;77;26397;-48
2022/04/16 04:02:33;;;;;;;0.85;0.20;;;;;;;;;;1821838;77;27247;-45
2022/04/16 04:05:02;;;;;;;2.27;0.47;;;;;;;;;;1825074;77;27037;-46
2022/04/16 04:07:30;;;;;;;0.35;0.33;;;;;;;;;;1839223;77;26613;-50
2022/04/16 04:09:57;;;;;;;0.30;0.20;;;;;;;;;;1838588;76;26851;-49
2022/04/16 04:12:25;;;;;;;0.53;0.30;;;;;;;;;;1834947;77;26342;-48
2022/04/16 04:14:52;;;;;;;1.12;0.30;;;;;;;;;;1828958;77;26338;-48
2022/04/16 04:17:19;;;;;;;0.30;0.30;;;;;;;;;;1838521;77;26577;-48
2022/04/16 04:19:47;;;;;;;0.40;0.40;;;;;;;;;;1844354;77;26256;-45
2022/04/16 04:22:16;;;;;;;6.42;0.95;;;;;;;;;;1828449;77;26384;-47
2022/04/16 04:24:45;;;;;;;0.55;0.37;;;;;;;;;;1848500;77;26778;-45
2022/04/16 04:27:13;;;;;;;0.30;0.20;;;;;;;;;;1843712;77;26272;-50
2022/04/16 04:29:41;;;;;;;1.27;0.30;;;;;;;;;;1828253;76;26295;-46
2022/04/16 04:32:08;;;;;;;0.50;0.50;;;;;;;;;;1839321;77;26272;-46
2022/04/16 04:34:36;;;;;;;0.65;0.30;;;;;;;;;;1846329;77;26736;-50
2022/04/16 04:37:04;;;;;;;0.30;0.30;;;;;;;;;;1847317;76;26932;-49
2022/04/16 04:39:32;;;;;;;0.30;0.30;;;;;;;;;;1841748;77;26383;-44
2022/04/16 04:41:59;;;;;;;0.20;0.20;;;;;;;;;;1842197;77;26209;-45
2022/04/16 04:44:27;;;;;;;1.95;0.40;;;;;;;;;;1836503;77;26305;-46
2022/04/16 04:46:54;;;;;;;0.30;0.30;;;;;;;;;;1841919;77;26268;-49
2022/04/16 04:49:21;;;;;;;0.35;0.35;;;;;;;;;;1844502;77;26326;-50
2022/04/16 04:51:49;;;;;;;0.30;0.30;;;;;;;;;;1839389;77;26546;-45
2022/04/16 04:54:16;;;;;;;0.15;0.15;;;;;;;;;;1844761;76;26901;-45
2022/04/16 04:56:44;;;;;;;0.25;0.25;;;;;;;;;;1836414;77;26787;-47
2022/04/16 04:59:11;;;;;;;0.10;0.10;;;;;;;;;;1836448;76;26374;-44
2022/04/16 05:01:39;;;;;;;0.20;0.20;;;;;;;;;;1827800;78;26273;-46
2022/04/16 05:04:06;;;;;;;0.30;0.30;;;;;;;;;;1841455;78;26752;-49
2022/04/16 05:06:33;;;;;;;0.10;0.10;;;;;;;;;;1825691;78;26718;-44
2022/04/16 05:09:00;;;;;;;0.30;0.30;;;;;;;;;;1816945;76;26712;-47
2022/04/16 05:11:28;;;;;;;0.15;0.15;;;;;;;;;;1832069;77;26721;-50
2022/04/16 05:13:55;;;;;;;0.45;0.28;;;;;;;;;;1835620;77;26256;-47
2022/04/16 05:16:22;;;;;;;0.28;0.28;;;;;;;;;;1835282;77;26269;-47
2022/04/16 05:18:50;;;;;;;0.68;0.28;;;;;;;;;;1834947;78;26338;-49
2022/04/16 05:21:17;;;;;;;0.25;0.25;;;;;;;;;;1831685;78;26265;-50
2022/04/16 05:23:44;;;;;;;0.20;0.20;;;;;;;;;;1843454;78;26807;-45
2022/04/16 05:26:12;;;;;;;0.20;0.20;;;;;;;;;;1829169;78;26252;-46
2022/04/16 05:28:41;;;;;;;0.25;0.25;;;;;;;;;;1839525;78;26370;-48
2022/04/16 05:31:09;;;;;;;0.33;0.33;;;;;;;;;;1833230;78;26304;-49
2022/04/16 05:36:21;;;;;;;0.40;0.30;;;;;;;;;;1840987;77;26882;-45
2022/04/16 05:38:49;;;;;;;0.30;0.30;;;;;;;;;;1829964;78;26747;-47
2022/04/16 05:41:16;;;;;;;1.25;0.30;;;;;;;;;;1837626;78;26665;-47
2022/04/16 05:43:43;;;;;;;0.15;0.10;;;;;;;;;;1833351;78;26284;-48
2022/04/16 05:46:11;;;;;;;0.60;0.17;;;;;;;;;;1829959;78;26343;-44
2022/04/16 05:48:38;;;;;;;0.30;0.30;;;;;;;;;;1830953;78;26284;-48
2022/04/16 05:51:05;;;;;;;0.30;0.30;;;;;;;;;;1838869;78;26318;-46
2022/04/16 05:53:35;;;;;;;0.15;0.15;;;;;;;;;;1839749;76;26475;-94
2022/04/16 05:56:04;;;;;;;0.20;0.20;;;;;;;;;;1820249;77;26325;-93
2022/04/16 05:58:41;;;;;;;0.10;0.10;;;;;;;;;;1822536;77;26200;-93
2022/04/16 06:01:09;;;;;;;2.35;0.30;;;;;;;;;;1823068;77;26267;-45
2022/04/16 06:03:37;;;;;;;0.25;0.25;;;;;;;;;;1847114;76;26244;-47
2022/04/16 06:06:04;;;;;;;0.33;0.20;;;;;;;;;;1848105;76;26806;-47
2022/04/16 06:08:32;;;;;;;0.35;0.35;;;;;;;;;;1849233;77;26699;-45
2022/04/16 06:10:59;;;;;;;0.20;0.20;;;;;;;;;;1845728;76;26271;-45
2022/04/16 06:13:26;;;;;;;0.20;0.20;;;;;;;;;;1834859;77;26258;-47
2022/04/16 06:15:54;;;;;;;0.23;0.20;;;;;;;;;;1839869;77;26246;-46
2022/04/16 06:18:21;;;;;;;1.50;0.30;;;;;;;;;;1839966;76;26281;-48
2022/04/16 06:20:48;;;;;;;1.47;0.28;;;;;;;;;;1839547;76;26252;-50
2022/04/16 06:23:16;;;;;;;0.47;0.47;;;;;;;;;;1839339;76;26340;-50
2022/04/16 06:25:43;;;;;;;0.20;0.13;;;;;;;;;;1828835;76;26276;-45
2022/04/16 06:28:10;;;;;;;0.25;0.25;;;;;;;;;;1843901;77;26275;-47
2022/04/16 06:30:37;;;;;;;0.20;0.20;;;;;;;;;;1836290;76;26880;-49
2022/04/16 06:33:05;;;;;;;0.33;0.33;;;;;;;;;;1850028;76;26688;-45
2022/04/16 06:35:32;;;;;;;0.50;0.20;;;;;;;;;;1835925;76;26325;-46
2022/04/16 06:38:00;;;;;;;0.40;0.40;;;;;;;;;;1840957;77;26267;-53
2022/04/16 06:40:27;;;;;;;2.77;0.30;;;;;;;;;;1814325;77;26385;-47
2022/04/16 06:42:54;;;;;;;0.30;0.30;;;;;;;;;;1842694;77;26380;-47
2022/04/16 06:45:22;;;;;;;0.42;0.30;;;;;;;;;;1837930;76;26775;-50
2022/04/16 06:47:49;;;;;;;0.20;0.20;;;;;;;;;;1834254;77;26711;-51
2022/04/16 06:50:16;;;;;;;0.50;0.10;;;;;;;;;;1843974;76;26287;-49
2022/04/16 06:52:45;;;;;;;0.93;0.20;;;;;;;;;;1841523;76;26312;-45
2022/04/16 06:55:12;;;;;;;2.92;0.20;;;;;;;;;;1838687;76;26759;-49
2022/04/16 06:57:39;;;;;;;0.33;0.33;;;;;;;;;;1844747;76;26766;-47
2022/04/16 07:00:08;;;;;;;2.12;0.35;;;;;;;;;;1837839;76;26314;-49
2022/04/16 07:02:36;;;;;;;3.72;0.45;;;;;;;;;;1836592;76;26802;-47
2022/04/16 07:05:05;;;;;;;0.20;0.20;;;;;;;;;;1856409;76;26783;-45
2022/04/16 07:07:32;;;;;;;0.28;0.28;;;;;;;;;;1837315;76;26245;-47
2022/04/16 07:10:00;;;;;;;1.82;0.30;;;;;;;;;;1847381;76;26429;-48
2022/04/16 07:12:27;;;;;;;0.20;0.20;;;;;;;;;;1845857;76;26256;-46
2022/04/16 07:14:55;;;;;;;0.95;0.20;;;;;;;;;;1845762;76;26335;-48
2022/04/16 07:17:22;;;;;;;0.20;0.20;;;;;;;;;;1826439;77;26679;-47
2022/04/16 07:19:49;;;;;;;0.17;0.17;;;;;;;;;;1838460;76;26305;-50
2022/04/16 07:22:20;;;;;;;0.23;0.15;;;;;;;;;;1836733;76;26359;-49
2022/04/16 07:24:48;;;;;;;3.17;0.68;;;;;;;;;;1835503;76;26834;-49
2022/04/16 07:27:16;;;;;;;1.27;0.20;;;;;;;;;;1831128;76;26276;-49
2022/04/16 07:29:45;;;;;;;0.93;0.28;;;;;;;;;;1833910;76;26388;-49
2022/04/16 07:32:13;;;;;;;0.88;0.37;;;;;;;;;;1838525;76;26328;-50
2022/04/16 07:34:40;;;;;;;4.10;0.47;;;;;;;;;;1834108;76;26260;-49
2022/04/16 07:37:07;;;;;;;0.50;0.30;;;;;;;;;;1841611;76;26276;-49
2022/04/16 07:39:35;;;;;;;0.20;0.20;;;;;;;;;;1833925;76;26261;-50
2022/04/16 07:42:03;;;;;;;1.20;0.80;;;;;;;;;;1842120;77;26264;-51
2022/04/16 07:44:30;;;;;;;2.95;0.30;;;;;;;;;;1832683;76;26349;-47
2022/04/16 07:46:58;;;;;;;0.80;0.25;;;;;;;;;;1834264;76;26267;-45
2022/04/16 07:49:25;;;;;;;1.25;0.28;;;;;;;;;;1842987;76;26392;-50
2022/04/16 07:51:52;;;;;;;1.90;0.30;;;;;;;;;;1831239;76;26291;-50
2022/04/16 07:54:19;;;;;;;1.67;0.30;;;;;;;;;;1828191;77;26346;-46
2022/04/16 07:56:47;;;;;;;0.45;0.20;;;;;;;;;;1837174;76;26366;-51
2022/04/16 07:59:14;;;;;;;0.30;0.20;;;;;;;;;;1832572;76;26257;-49
2022/04/16 08:01:41;;;;;;;0.65;0.20;;;;;;;;;;1827174;76;26334;-51
2022/04/16 08:04:09;;;;;;;1.57;0.40;;;;;;;;;;1804854;78;26274;-47
2022/04/16 08:06:36;;;;;;;0.17;0.17;;;;;;;;;;1830875;76;26302;-46
2022/04/16 08:09:03;;;;;;;6.15;0.30;;;;;;;;;;1824955;76;26377;-47
2022/04/16 08:11:32;;;;;;;0.53;0.23;;;;;;;;;;1819791;76;26335;-48
2022/04/16 08:14:00;;;;;;;0.37;0.28;;;;;;;;;;1816908;77;25690;-47
2022/04/16 08:16:27;;;;;;;0.60;0.30;;;;;;;;;;1813904;78;26205;-46
2022/04/16 08:18:55;;;;;;;0.30;0.20;;;;;;;;;;1823874;77;26341;-46
2022/04/16 08:21:22;;;;;;;0.10;0.10;;;;;;;;;;1819439;77;26276;-50
2022/04/16 08:24:13;;;;;;;0.53;0.13;;;;;;;;;;1825793;77;26280;-46
2022/04/16 08:26:34;;;;;;;0.20;0.20;;;;;;;;;;1821253;77;26330;-45
2022/04/16 08:29:02;;;;;;;0.20;0.20;;;;;;;;;;1826295;77;26268;-46
2022/04/16 08:31:29;;;;;;;0.28;0.20;;;;;;;;;;1816176;77;26852;-49
2022/04/16 08:33:57;;;;;;;0.42;0.20;;;;;;;;;;1825511;78;26817;-47
2022/04/16 08:36:25;;;;;;;0.10;0.10;;;;;;;;;;1814394;77;26243;-94
2022/04/16 08:38:53;;;;;;;1.30;0.10;;;;;;;;;;1839517;77;26380;-45
2022/04/16 08:41:20;;;;;;;0.17;0.17;;;;;;;;;;1818989;77;26275;-46
2022/04/16 08:43:48;;;;;;;1.35;0.30;;;;;;;;;;1819244;77;26846;-50
2022/04/16 08:46:16;;;;;;;0.20;0.20;;;;;;;;;;1816943;77;26343;-46
2022/04/16 08:48:44;;;;;;;0.17;0.17;;;;;;;;;;1826835;78;26752;-45
2022/04/16 08:51:12;;;;;;;0.20;0.20;;;;;;;;;;1824037;77;26334;-45
2022/04/16 08:53:39;;;;;;;0.20;0.20;;;;;;;;;;1803400;78;26288;-48
2022/04/16 08:56:07;;;;;;;0.10;0.10;;;;;;;;;;1811745;77;26315;-47
2022/04/16 08:58:34;;;;;;;2.45;0.20;;;;;;;;;;1816288;77;26806;-51
2022/04/16 09:01:01;;;;;;;0.10;0.10;;;;;;;;;;1817896;77;26910;-49
2022/04/16 09:03:35;;;;;;;1.50;0.30;;;;;;;;;;1810574;78;26343;-47
2022/04/16 09:06:03;;;;;;;0.20;0.20;;;;;;;;;;1829706;77;27475;-49
2022/04/16 09:08:32;;;;;;;0.17;0.17;;;;;;;;;;1822347;77;26320;-50
2022/04/16 09:11:06;;;;;;;0.65;0.23;;;;;;;;;;1796615;78;26307;-47
2022/04/16 09:13:34;;;;;;;0.20;0.20;;;;;;;;;;1841500;77;27182;-46
2022/04/16 09:16:04;;;;;;;0.20;0.20;;;;;;;;;;1851312;76;26329;-47
2022/04/16 09:18:33;;;;;;;0.10;0.10;;;;;;;;;;1852338;76;26686;-50
2022/04/16 09:21:02;;;;;;;0.72;0.20;;;;;;;;;;1849952;76;26264;-48
2022/04/16 09:23:29;;;;;;;0.10;0.10;;;;;;;;;;1822603;76;26253;-48
2022/04/16 09:25:57;;;;;;;0.20;0.20;;;;;;;;;;1889875;74;26319;-51
2022/04/16 09:28:25;;;;;;;0.33;0.28;;;;;;;;;;1886532;76;27215;-50
2022/04/16 09:30:54;;;;;;;0.10;0.10;;;;;;;;;;1873016;74;26248;-45
2022/04/16 09:33:21;;;;;;;1.02;0.10;;;;;;;;;;1902490;74;26305;-46
2022/04/16 09:35:58;;;;;;;0.20;0.20;;;;;;;;;;1901263;74;26242;-47
2022/04/16 09:38:30;;;;;;;0.17;0.17;;;;;;;;;;1884188;74;26307;-51
2022/04/16 09:40:54;;;;;;;0.10;0.10;;;;;;;;;;1883204;74;26298;-48
2022/04/16 09:43:22;;;;;;;0.13;0.13;;;;;;;;;;1894048;74;26220;-52
2022/04/16 09:45:49;;;;;;;0.03;0.03;;;;;;;;;;1897304;74;26799;-50
2022/04/16 09:48:16;;;;;;;0.20;0.20;;;;;;;;;;1886595;75;26497;-46
2022/04/16 09:50:44;;;;;;;0.10;0.10;;;;;;;;;;1889507;74;27222;-47
2022/04/16 09:53:12;;;;;;;0.62;0.10;;;;;;;;;;1892481;74;26690;-47
2022/04/16 09:55:41;;;;;;;0.17;0.17;;;;;;;;;;1892798;75;26317;-48
2022/04/16 09:58:09;;;;;;;0.10;0.10;;;;;;;;;;1888940;74;26289;-46
2022/04/16 10:00:37;;;;;;;0.05;0.05;;;;;;;;;;1882624;76;26269;-46
2022/04/16 10:03:08;;;;;;;0.10;0.10;;;;;;;;;;1875802;74;26597;-45
2022/04/16 10:05:36;;;;;;;0.10;0.10;;;;;;;;;;1887167;74;26383;-47
2022/04/16 10:08:04;;;;;;;0.10;0.10;;;;;;;;;;1868959;75;26296;-46
2022/04/16 10:10:36;;;;;;;0.45;0.20;;;;;;;;;;1879311;74;26827;-47
2022/04/16 10:13:05;;;;;;;0.10;0.10;;;;;;;;;;1874414;75;26304;-48
2022/04/16 10:15:43;;;;;;;0.10;0.10;;;;;;;;;;1885494;74;26262;-46
2022/04/16 10:18:12;;;;;;;0.10;0.10;;;;;;;;;;1870542;76;26584;-46
2022/04/16 10:20:41;;;;;;;0.10;0.10;;;;;;;;;;1880435;75;26250;-46
2022/04/16 10:23:08;;;;;;;0.20;0.20;;;;;;;;;;1883513;74;26181;-47
2022/04/16 10:25:36;;;;;;;0.10;0.10;;;;;;;;;;1895479;75;26295;-47
2022/04/16 10:28:11;;;;;;;0.10;0.10;;;;;;;;;;1887016;74;26720;-47
2022/04/16 10:30:40;;;;;;;0.47;0.10;;;;;;;;;;1881172;74;26285;-48
2022/04/16 10:33:17;;;;;;;0.30;0.10;;;;;;;;;;1879647;75;26217;-50
2022/04/16 10:35:52;;;;;;;0.10;0.10;;;;;;;;;;1881627;75;26292;-46
2022/04/16 10:38:24;;;;;;;0.20;0.20;;;;;;;;;;1881291;74;26791;-46
2022/04/16 10:40:54;;;;;;;0.10;0.10;;;;;;;;;;1878203;75;26347;-50
2022/04/16 10:43:29;;;;;;;0.10;0.10;;;;;;;;;;1884059;75;26332;-47
2022/04/16 10:45:58;;;;;;;0.10;0.10;;;;;;;;;;1875952;75;26191;-45
2022/04/16 10:48:25;;;;;;;0.17;0.17;;;;;;;;;;1865998;75;26859;-47
2022/04/16 10:50:52;;;;;;;0.10;0.10;;;;;;;;;;1892702;74;26750;-47
2022/04/16 10:53:21;;;;;;;0.13;0.13;;;;;;;;;;1892393;74;26254;-46
2022/04/16 10:55:49;;;;;;;0.10;0.10;;;;;;;;;;1871703;74;26222;-48
2022/04/16 10:58:20;;;;;;;0.10;0.10;;;;;;;;;;1895906;75;26709;-48
2022/04/16 11:00:47;;;;;;;0.20;0.20;;;;;;;;;;1888611;74;26258;-47
2022/04/16 11:03:21;;;;;;;0.10;0.10;;;;;;;;;;1911523;74;26347;-46
2022/04/16 11:05:45;;;;;;;0.10;0.10;;;;;;;;;;1911039;74;26312;-51
2022/04/16 11:08:18;;;;;;;0.10;0.10;;;;;;;;;;1881495;74;26229;-48
2022/04/16 11:10:43;;;;;;;0.10;0.10;;;;;;;;;;1883730;75;26320;-47
2022/04/16 11:13:12;;;;;;;0.33;0.10;;;;;;;;;;1906217;74;27366;-49
2022/04/16 11:15:40;;;;;;;0.20;0.20;;;;;;;;;;1894700;74;26226;-48
2022/04/16 11:18:09;;;;;;;0.20;0.20;;;;;;;;;;1883699;74;26230;-49
2022/04/16 11:20:36;;;;;;;0.00;0.00;;;;;;;;;;1890679;75;25366;-46
2022/04/16 11:23:05;;;;;;;0.10;0.10;;;;;;;;;;1911214;74;26437;-45
2022/04/16 11:34:14;;;;;;;0.15;0.15;;;;;;;;;;1907350;73;26230;-50
2022/04/16 11:34:34;;;;;;;0.10;0.10;;;;;;;;;;1886046;74;26269;-48
2022/04/16 11:36:12;;;;;;;0.10;0.10;;;;;;;;;;1866787;73;26697;-45
2022/04/16 11:38:41;;;;;;;0.10;0.10;;;;;;;;;;1904362;74;26238;-45
2022/04/16 11:41:10;;;;;;;0.10;0.10;;;;;;;;;;1909420;74;26729;-47
2022/04/16 11:43:40;;;;;;;0.20;0.20;;;;;;;;;;1893205;75;26235;-47
2022/04/16 11:46:12;;;;;;;0.13;0.13;;;;;;;;;;1879758;74;26256;-46
2022/04/16 11:48:48;;;;;;;0.10;0.10;;;;;;;;;;1891776;75;26650;-47
2022/04/16 11:51:16;;;;;;;0.03;0.03;;;;;;;;;;1886009;74;26241;-49
2022/04/16 11:53:45;;;;;;;0.10;0.10;;;;;;;;;;1899006;74;26729;-46
2022/04/16 11:56:12;;;;;;;0.10;0.10;;;;;;;;;;1898135;75;26214;-46
2022/04/16 11:58:39;;;;;;;0.10;0.10;;;;;;;;;;1902086;75;26230;-48
2022/04/16 12:01:08;;;;;;;0.10;0.10;;;;;;;;;;1896044;75;26847;-48
2022/04/16 12:03:41;;;;;;;0.10;0.10;;;;;;;;;;1897338;74;26355;-49
2022/04/16 12:06:12;;;;;;;0.20;0.20;;;;;;;;;;1891312;74;26428;-47
2022/04/16 12:08:44;;;;;;;0.13;0.13;;;;;;;;;;1882131;75;26242;-48
2022/04/16 12:11:11;;;;;;;0.20;0.20;;;;;;;;;;1893594;74;27168;-48
2022/04/16 12:13:40;;;;;;;0.10;0.10;;;;;;;;;;1874881;75;26262;-45
2022/04/16 12:16:13;;;;;;;0.20;0.10;;;;;;;;;;1886651;74;26261;-48
2022/04/16 12:18:41;;;;;;;0.25;0.25;;;;;;;;;;1888077;75;26701;-48
2022/04/16 12:21:10;;;;;;;0.13;0.13;;;;;;;;;;1878721;75;26668;-46
2022/04/16 12:23:38;;;;;;;0.10;0.10;;;;;;;;;;1891414;75;26288;-46
2022/04/16 12:26:06;;;;;;;0.13;0.13;;;;;;;;;;1895753;75;26246;-47
2022/04/16 12:28:38;;;;;;;0.10;0.10;;;;;;;;;;1884980;74;26291;-47
2022/04/16 12:31:06;;;;;;;0.20;0.20;;;;;;;;;;1866070;75;26279;-48
2022/04/16 12:33:34;;;;;;;0.20;0.20;;;;;;;;;;1894870;75;26246;-45
2022/04/16 12:36:01;;;;;;;0.20;0.10;;;;;;;;;;1868028;75;26185;-46
2022/04/16 12:38:28;;;;;;;0.20;0.20;;;;;;;;;;1895388;75;26295;-48
2022/04/16 12:41:05;;;;;;;0.15;0.15;;;;;;;;;;1895375;74;26223;-46
2022/04/16 12:43:32;;;;;;;0.20;0.20;;;;;;;;;;1895464;75;26729;-46
2022/04/16 12:46:00;;;;;;;0.20;0.20;;;;;;;;;;1895326;74;26304;-47
2022/04/16 12:48:27;;;;;;;0.20;0.20;;;;;;;;;;1894127;75;26253;-46
2022/04/16 12:50:55;;;;;;;0.20;0.20;;;;;;;;;;1894834;74;27440;-45
2022/04/16 12:53:22;;;;;;;0.30;0.30;;;;;;;;;;1901257;74;26697;-46
2022/04/16 12:55:50;;;;;;;0.10;0.10;;;;;;;;;;1895557;75;26246;-46
2022/04/16 12:58:17;;;;;;;0.23;0.23;;;;;;;;;;1887075;75;26226;-49
2022/04/16 13:00:47;;;;;;;0.10;0.10;;;;;;;;;;1895338;74;25706;-46
2022/04/16 13:03:15;;;;;;;0.17;0.17;;;;;;;;;;1892545;74;26278;-45
2022/04/16 13:05:42;;;;;;;0.30;0.30;;;;;;;;;;1897545;75;26233;-47
2022/04/16 13:08:11;;;;;;;0.30;0.30;;;;;;;;;;1898410;75;26300;-47
2022/04/16 13:10:38;;;;;;;0.40;0.40;;;;;;;;;;1896518;74;26329;-50
2022/04/16 13:13:05;;;;;;;0.30;0.30;;;;;;;;;;1888802;75;26350;-47
2022/04/16 13:15:33;;;;;;;0.30;0.30;;;;;;;;;;1872186;74;26250;-50
2022/04/16 13:18:00;;;;;;;0.30;0.30;;;;;;;;;;1897285;75;26333;-48
2022/04/16 13:20:29;;;;;;;0.30;0.30;;;;;;;;;;1898308;75;26693;-46
2022/04/16 13:22:56;;;;;;;0.30;0.30;;;;;;;;;;1893244;75;26267;-45
2022/04/16 13:25:25;;;;;;;0.40;0.40;;;;;;;;;;1874600;74;26254;-48
2022/04/16 13:27:52;;;;;;;0.35;0.35;;;;;;;;;;1897386;75;26233;-47
2022/04/16 13:30:19;;;;;;;0.30;0.30;;;;;;;;;;1884972;75;26331;-47
2022/04/16 13:32:47;;;;;;;0.30;0.30;;;;;;;;;;1898756;75;26227;-50
2022/04/16 13:35:14;;;;;;;0.20;0.20;;;;;;;;;;1899872;75;26218;-52
2022/04/16 13:37:41;;;;;;;0.20;0.20;;;;;;;;;;1893902;74;26639;-45
2022/04/16 13:42:54;;;;;;;0.30;0.30;;;;;;;;;;1898180;75;26334;-48
2022/04/16 13:45:21;;;;;;;0.37;0.37;;;;;;;;;;1889714;75;26245;-44
2022/04/16 13:47:49;;;;;;;0.30;0.30;;;;;;;;;;1874633;74;26699;-45
2022/04/16 13:50:16;;;;;;;0.40;0.40;;;;;;;;;;1870306;75;26686;-47
2022/04/16 13:52:43;;;;;;;0.20;0.20;;;;;;;;;;1894589;75;26280;-47
2022/04/16 13:55:10;;;;;;;0.30;0.30;;;;;;;;;;1895354;75;26225;-47
2022/04/16 13:57:38;;;;;;;0.20;0.20;;;;;;;;;;1882103;75;26193;-48
2022/04/16 14:00:06;;;;;;;0.10;0.10;;;;;;;;;;1881801;74;26214;-45
2022/04/16 14:02:33;;;;;;;0.25;0.23;;;;;;;;;;1892245;74;26903;-49
2022/04/16 14:07:45;;;;;;;0.30;0.30;;;;;;;;;;1898234;74;26219;-47
2022/04/16 14:10:12;;;;;;;0.30;0.30;;;;;;;;;;1897831;74;26248;-48
2022/04/16 14:12:41;;;;;;;0.40;0.40;;;;;;;;;;1891513;74;26302;-48
2022/04/16 14:15:09;;;;;;;0.30;0.30;;;;;;;;;;1889831;74;26731;-48
2022/04/16 14:17:36;;;;;;;0.25;0.25;;;;;;;;;;1873730;75;26297;-49
2022/04/16 14:20:05;;;;;;;0.40;0.40;;;;;;;;;;1892781;75;26194;-45
2022/04/16 14:22:32;;;;;;;0.30;0.30;;;;;;;;;;1890926;74;26290;-48
2022/04/16 14:24:59;;;;;;;0.30;0.30;;;;;;;;;;1877730;75;26228;-46
2022/04/16 14:27:27;;;;;;;0.30;0.30;;;;;;;;;;1884792;75;26249;-49
2022/04/16 14:29:54;;;;;;;0.30;0.30;;;;;;;;;;1892560;75;26313;-47
2022/04/16 14:32:21;;;;;;;0.40;0.40;;;;;;;;;;1890640;75;26595;-49
2022/04/16 14:34:50;;;;;;;0.62;0.30;;;;;;;;;;1893211;74;26285;-50
2022/04/16 14:37:17;;;;;;;0.40;0.40;;;;;;;;;;1883798;75;26568;-47
2022/04/16 14:39:46;;;;;;;1.95;0.42;;;;;;;;;;1895429;75;26241;-47
2022/04/16 14:42:14;;;;;;;4.53;0.50;;;;;;;;;;1885484;75;26657;-46
2022/04/16 14:44:43;;;;;;;0.50;0.50;;;;;;;;;;1896850;75;26238;-50
2022/04/16 14:47:10;;;;;;;3.83;0.57;;;;;;;;;;1892260;75;26295;-50
2022/04/16 14:49:38;;;;;;;3.00;0.68;;;;;;;;;;1892764;75;26542;-46
2022/04/16 14:52:05;;;;;;;1.50;0.50;;;;;;;;;;1894978;75;26300;-46
2022/04/16 14:54:32;;;;;;;0.47;0.47;;;;;;;;;;1891840;75;27123;-50
2022/04/16 14:57:00;;;;;;;5.67;1.10;;;;;;;;;;1877801;74;26265;-47
2022/04/16 14:59:27;;;;;;;4.25;0.50;;;;;;;;;;1897878;75;26222;-45
2022/04/16 15:01:54;;;;;;;0.47;0.40;;;;;;;;;;1898302;74;26694;-47
2022/04/16 15:04:23;;;;;;;1.00;0.53;;;;;;;;;;1870622;74;26664;-46
2022/04/16 15:06:50;;;;;;;0.90;0.40;;;;;;;;;;1886928;75;26883;-47
2022/04/16 15:09:18;;;;;;;0.98;0.50;;;;;;;;;;1884097;74;26722;-45
2022/04/16 15:11:45;;;;;;;0.57;0.40;;;;;;;;;;1895041;75;26246;-47
2022/04/16 15:14:12;;;;;;;3.20;0.60;;;;;;;;;;1895277;74;26230;-47
2022/04/16 15:16:40;;;;;;;2.15;0.60;;;;;;;;;;1889237;74;26233;-50